Weather at Alexandria (Gidas) Airfield

Public forecast

Using degrees Celsius for public forecast. Weather courtesy of forecast.io.

Closest aviation weather report (METAR) to Alexandria (Gidas) Airfield

Closest report is Thessaloniki Macedonia International Airport, 23.3 nm (43.2 km) ESE.

2024/05/24 00:50 (retrieved 26 minutes ago)

LGTS 240050Z 13004KT 9999 FEW030 16/12 Q1015 NOSIG

Closest aviation forecast (TAF) to Alexandria (Gidas) Airfield

Forecast is more than 6 hours old.

Closest forecast is Kukës International Airport, 125.1 nm (231.6 km) NW.

2024/05/23 18:00 Ammendment (retrieved 7 hours ago)

TAF AMD LAKU 231900Z 2318/2418 CNL